Time;durP1;ratioP1;P1;durP2;ratioP2;P2;SDS_P1;SDS_P2;PMS_P1;PMS_P2;Temp;Humidity;BMP_temperature;BMP_pressure;BME280_temperature;BME280_humidity;BME280_pressure;Samples;Min_cycle;Max_cycle;Signal;HPM_P1;HPM_P2
2021/04/11 00:02:01;;;;;;;1.47;0.83;;;7.40;90.90;;;;;;4932259;29;20213;-65
2021/04/11 00:04:28;;;;;;;1.00;0.50;;;7.40;91.10;;;;;;4933483;29;20204;-65
2021/04/11 00:06:54;;;;;;;0.87;0.57;;;7.40;91.00;;;;;;4933986;29;20306;-65
2021/04/11 00:09:21;;;;;;;0.87;0.47;;;7.40;91.10;;;;;;4933939;29;20283;-65
2021/04/11 00:11:48;;;;;;;0.53;0.50;;;7.30;91.10;;;;;;4932257;29;20222;-65
2021/04/11 00:14:14;;;;;;;1.03;0.57;;;7.40;91.10;;;;;;4933263;29;20665;-65
2021/04/11 00:16:41;;;;;;;1.30;0.97;;;7.40;91.20;;;;;;4933185;29;20954;-65
2021/04/11 00:19:07;;;;;;;0.40;0.40;;;7.40;91.30;;;;;;4933776;29;20270;-64
2021/04/11 00:21:35;;;;;;;0.47;0.47;;;7.40;91.60;;;;;;4928835;29;20208;-64
2021/04/11 00:24:01;;;;;;;1.07;0.50;;;7.40;91.30;;;;;;4933405;29;20212;-65
2021/04/11 00:26:28;;;;;;;1.47;0.70;;;7.40;91.40;;;;;;4930568;29;20227;-64
2021/04/11 00:28:54;;;;;;;1.30;0.70;;;7.40;91.50;;;;;;4932887;29;20292;-65
2021/04/11 00:31:21;;;;;;;1.33;0.67;;;7.40;91.50;;;;;;4932960;29;20273;-67
2021/04/11 00:33:47;;;;;;;0.93;0.50;;;7.40;91.60;;;;;;4945062;28;20385;-65
2021/04/11 00:36:15;;;;;;;1.00;0.53;;;7.40;91.60;;;;;;4934876;28;20758;-63
2021/04/11 00:38:43;;;;;;;1.10;0.57;;;7.50;91.70;;;;;;4933265;29;20205;-65
2021/04/11 00:41:15;;;;;;;0.50;0.50;;;7.50;91.70;;;;;;4930521;29;20293;-65
2021/04/11 00:43:43;;;;;;;0.60;0.60;;;7.50;91.70;;;;;;4932630;29;20272;-64
2021/04/11 00:46:32;;;;;;;0.30;0.30;;;7.50;91.80;;;;;;4931630;29;20249;-65
2021/04/11 00:49:00;;;;;;;0.57;0.40;;;7.50;91.80;;;;;;4931770;29;20225;-65
2021/04/11 00:51:28;;;;;;;0.60;0.50;;;7.60;91.90;;;;;;4932983;29;20570;-65
2021/04/11 00:54:01;;;;;;;0.50;0.50;;;7.50;91.90;;;;;;4939353;29;20639;-63
2021/04/11 00:56:30;;;;;;;1.27;0.70;;;7.60;92.10;;;;;;4929926;29;20209;-64
2021/04/11 00:58:57;;;;;;;1.27;0.77;;;7.60;92.20;;;;;;4930356;29;20199;-65
2021/04/11 01:01:24;;;;;;;2.90;0.90;;;7.60;92.30;;;;;;4924547;29;20288;-65
2021/04/11 01:03:53;;;;;;;2.47;0.93;;;7.60;92.50;;;;;;4941370;28;20217;-65
2021/04/11 01:06:25;;;;;;;5.87;1.43;;;7.60;92.80;;;;;;4931718;29;20523;-67
2021/04/11 01:08:56;;;;;;;2.23;1.00;;;7.60;93.00;;;;;;4926727;29;20214;-65
2021/04/11 01:11:28;;;;;;;4.13;1.30;;;7.50;93.20;;;;;;4941368;28;20677;-65
2021/04/11 01:13:57;;;;;;;1.90;0.93;;;7.60;93.30;;;;;;4932229;29;20273;-67
2021/04/11 01:16:25;;;;;;;3.10;1.10;;;7.60;93.80;;;;;;4930970;29;20210;-66
2021/04/11 01:18:55;;;;;;;2.87;1.43;;;7.60;93.70;;;;;;4931239;29;20268;-65
2021/04/11 01:21:37;;;;;;;0.90;0.80;;;7.60;93.90;;;;;;4932418;29;20246;-64
2021/04/11 01:24:13;;;;;;;3.20;1.10;;;7.60;94.00;;;;;;4933011;29;20286;-65
2021/04/11 01:26:46;;;;;;;3.43;1.13;;;7.60;94.30;;;;;;4932494;29;20685;-65
2021/04/11 01:29:14;;;;;;;2.97;1.50;;;7.70;94.60;;;;;;4930904;29;20378;-64
2021/04/11 01:31:42;;;;;;;7.17;2.60;;;7.70;95.20;;;;;;4933745;29;20207;-65
2021/04/11 01:34:10;;;;;;;6.07;1.77;;;7.70;95.90;;;;;;4931036;29;20733;-65
2021/04/11 01:36:39;;;;;;;5.57;1.87;;;7.50;96.70;;;;;;4930810;29;20241;-65
2021/04/11 01:39:10;;;;;;;2.70;1.40;;;7.60;97.20;;;;;;4932586;29;20202;-64
2021/04/11 01:41:41;;;;;;;3.97;1.60;;;7.50;97.50;;;;;;4930448;29;20198;-65
2021/04/11 01:44:11;;;;;;;4.67;1.80;;;7.60;97.90;;;;;;4946885;28;20582;-65
2021/04/11 01:46:39;;;;;;;4.20;2.10;;;7.60;98.40;;;;;;4931608;29;20289;-64
2021/04/11 01:49:06;;;;;;;4.07;1.70;;;7.60;98.80;;;;;;4930846;29;20282;-65
2021/04/11 01:51:36;;;;;;;3.47;1.63;;;7.60;99.00;;;;;;4931219;29;20212;-65
2021/04/11 01:54:08;;;;;;;2.90;1.53;;;7.60;99.40;;;;;;4936749;28;20230;-65
2021/04/11 01:56:35;;;;;;;2.63;1.20;;;7.60;99.50;;;;;;4940924;28;20211;-64
2021/04/11 01:59:10;;;;;;;3.60;1.53;;;7.70;99.90;;;;;;4931845;29;20582;-65
2021/04/11 02:01:41;;;;;;;2.57;1.70;;;7.70;99.90;;;;;;4939047;28;20670;-63
2021/04/11 02:04:08;;;;;;;4.20;1.70;;;7.60;99.90;;;;;;4933975;29;20215;-64
2021/04/11 02:06:45;;;;;;;3.83;1.60;;;7.70;99.90;;;;;;4938705;29;20236;-65
2021/04/11 02:09:28;;;;;;;2.80;1.70;;;7.70;99.90;;;;;;4927448;29;20207;-65
2021/04/11 02:12:19;;;;;;;1.50;1.33;;;7.70;99.90;;;;;;4893099;29;20214;-65
2021/04/11 02:14:52;;;;;;;1.60;1.20;;;7.70;99.90;;;;;;4902882;29;20626;-64
2021/04/11 02:17:20;;;;;;;3.00;1.50;;;7.70;99.90;;;;;;4888076;29;20208;-65
2021/04/11 02:19:51;;;;;;;2.97;2.00;;;7.80;99.90;;;;;;4903795;29;20206;-65
2021/04/11 02:22:23;;;;;;;2.20;1.70;;;7.80;99.90;;;;;;4880632;29;20199;-65
2021/04/11 02:24:51;;;;;;;3.57;2.00;;;7.80;99.90;;;;;;4889928;29;20589;-65
2021/04/11 02:27:21;;;;;;;3.00;1.53;;;7.80;99.90;;;;;;4883726;29;20211;-64
2021/04/11 02:29:48;;;;;;;1.57;1.27;;;7.80;99.90;;;;;;4885679;29;20250;-64
2021/04/11 02:32:17;;;;;;;1.50;1.17;;;7.80;99.90;;;;;;4891151;29;20215;-64
2021/04/11 02:34:45;;;;;;;4.43;1.90;;;7.80;99.90;;;;;;4892479;29;20567;-64
2021/04/11 02:37:18;;;;;;;2.30;1.50;;;7.80;99.90;;;;;;4905659;29;20659;-65
2021/04/11 02:39:45;;;;;;;4.93;1.70;;;7.90;99.90;;;;;;4899633;29;20215;-65
2021/04/11 02:42:21;;;;;;;4.47;1.87;;;7.90;99.90;;;;;;4889884;29;20687;-64
2021/04/11 02:44:53;;;;;;;5.43;1.90;;;7.90;99.90;;;;;;4888482;29;21132;-64
2021/04/11 02:47:27;;;;;;;3.00;1.70;;;7.90;99.90;;;;;;4890599;29;20228;-64
2021/04/11 02:49:57;;;;;;;6.03;2.23;;;7.90;99.90;;;;;;4917606;29;20211;-63
2021/04/11 02:52:30;;;;;;;4.57;2.33;;;7.90;99.90;;;;;;4944530;28;20202;-64
2021/04/11 02:54:59;;;;;;;1.80;1.60;;;7.80;99.90;;;;;;4919888;29;20241;-64
2021/04/11 02:57:28;;;;;;;2.07;1.40;;;7.80;99.90;;;;;;4927866;29;20352;-65
2021/04/11 02:59:58;;;;;;;2.27;1.50;;;7.90;99.90;;;;;;4929586;29;20296;-65
2021/04/11 03:02:30;;;;;;;2.07;1.47;;;7.90;99.90;;;;;;4929378;29;20275;-65
2021/04/11 03:05:05;;;;;;;2.60;1.40;;;7.90;99.90;;;;;;4930064;29;20228;-65
2021/04/11 03:07:39;;;;;;;3.33;1.40;;;8.00;99.90;;;;;;4930737;29;20213;-65
2021/04/11 03:10:11;;;;;;;4.37;1.60;;;7.90;99.90;;;;;;4947974;28;20209;-65
2021/04/11 03:12:42;;;;;;;6.93;1.80;;;8.00;99.90;;;;;;4928867;29;20222;-65
2021/04/11 03:15:13;;;;;;;7.07;1.90;;;8.00;99.90;;;;;;4928403;29;20203;-65
2021/04/11 03:17:45;;;;;;;4.73;2.23;;;8.00;99.90;;;;;;4922882;29;20217;-63
2021/04/11 03:20:18;;;;;;;3.30;1.83;;;8.10;99.90;;;;;;4934616;29;20196;-64
2021/04/11 03:22:53;;;;;;;1.87;1.60;;;8.10;99.90;;;;;;4928113;29;20211;-64
2021/04/11 03:25:20;;;;;;;2.47;1.60;;;8.10;99.90;;;;;;4941729;28;20235;-64
2021/04/11 03:27:51;;;;;;;3.43;1.60;;;8.10;99.90;;;;;;4933162;29;20203;-65
2021/04/11 03:30:23;;;;;;;4.10;1.50;;;8.10;99.90;;;;;;4934005;29;20215;-65
2021/04/11 03:32:54;;;;;;;2.63;1.23;;;8.10;99.90;;;;;;4933493;29;20330;-64
2021/04/11 03:35:26;;;;;;;2.73;1.50;;;8.10;99.90;;;;;;4933409;29;20217;-64
2021/04/11 03:37:59;;;;;;;3.63;1.67;;;8.20;99.90;;;;;;4938129;28;20215;-64
2021/04/11 03:40:28;;;;;;;2.90;1.70;;;8.20;99.90;;;;;;4920007;29;20208;-65
2021/04/11 03:43:01;;;;;;;3.97;1.70;;;8.20;99.90;;;;;;4947290;28;20625;-64
2021/04/11 03:45:31;;;;;;;4.70;1.60;;;8.20;99.90;;;;;;4943884;28;20373;-63
2021/04/11 03:48:06;;;;;;;2.33;1.30;;;8.30;99.90;;;;;;4933761;29;20283;-64
2021/04/11 03:50:38;;;;;;;2.73;1.30;;;8.20;99.90;;;;;;4941835;28;20199;-64
2021/04/11 03:53:16;;;;;;;5.63;1.33;;;8.30;99.90;;;;;;4934991;29;20253;-64
2021/04/11 03:55:49;;;;;;;2.87;1.20;;;8.30;99.90;;;;;;4933240;29;20557;-64
2021/04/11 03:58:27;;;;;;;2.87;1.10;;;8.20;99.90;;;;;;4932121;29;20245;-64
2021/04/11 04:00:59;;;;;;;4.53;0.80;;;8.10;99.90;;;;;;4931930;29;20218;-64
2021/04/11 04:03:32;;;;;;;3.10;1.20;;;8.10;99.90;;;;;;4933064;29;20263;-64
2021/04/11 04:06:05;;;;;;;3.07;1.20;;;8.10;99.90;;;;;;4933210;29;20316;-65
2021/04/11 04:08:32;;;;;;;1.27;0.93;;;8.00;99.90;;;;;;4932830;29;20237;-64
2021/04/11 04:11:14;;;;;;;2.73;1.30;;;7.90;99.90;;;;;;4930865;29;20243;-64
2021/04/11 04:13:49;;;;;;;4.93;1.23;;;7.90;99.90;;;;;;4932347;29;20721;-64
2021/04/11 04:16:21;;;;;;;2.40;1.10;;;7.90;99.90;;;;;;4921772;29;20196;-64
2021/04/11 04:19:07;;;;;;;1.03;0.93;;;7.80;99.90;;;;;;4933368;29;20207;-64
2021/04/11 04:21:57;;;;;;;1.40;0.90;;;7.90;99.90;;;;;;4927300;29;20339;-64
2021/04/11 04:24:34;;;;;;;0.87;0.80;;;7.90;99.90;;;;;;4948310;28;20213;-65
2021/04/11 04:27:21;;;;;;;1.47;0.90;;;7.90;99.90;;;;;;4931359;29;20281;-65
2021/04/11 04:30:00;;;;;;;0.80;0.80;;;8.00;99.90;;;;;;4931927;29;20213;-64
2021/04/11 04:32:35;;;;;;;2.47;0.90;;;8.00;99.90;;;;;;4931912;29;20216;-64
2021/04/11 04:35:20;;;;;;;0.80;0.80;;;8.00;99.90;;;;;;4947575;28;20277;-65
2021/04/11 04:37:57;;;;;;;0.87;0.70;;;8.00;99.90;;;;;;4933702;29;20196;-65
2021/04/11 04:40:35;;;;;;;2.77;0.83;;;8.00;99.90;;;;;;4933068;29;20208;-65
2021/04/11 04:43:14;;;;;;;1.43;0.80;;;8.10;99.90;;;;;;4931042;29;20217;-65
2021/04/11 04:45:56;;;;;;;0.83;0.80;;;8.10;99.90;;;;;;4946786;28;20209;-65
2021/04/11 04:48:30;;;;;;;1.77;1.00;;;8.20;99.90;;;;;;4931655;29;20229;-65
2021/04/11 04:51:06;;;;;;;1.60;0.70;;;8.20;99.90;;;;;;4939182;28;20237;-65
2021/04/11 04:53:41;;;;;;;4.33;0.83;;;8.20;99.90;;;;;;4931336;29;20220;-64
2021/04/11 04:56:18;;;;;;;0.80;0.80;;;8.20;99.90;;;;;;4933328;28;20216;-64
2021/04/11 04:58:51;;;;;;;1.00;0.90;;;8.20;99.90;;;;;;4927923;28;20238;-64
2021/04/11 05:01:23;;;;;;;0.63;0.63;;;8.20;99.90;;;;;;4942090;28;20304;-63
2021/04/11 05:04:03;;;;;;;1.20;0.70;;;8.20;99.90;;;;;;4931731;29;20239;-64
2021/04/11 05:06:39;;;;;;;1.47;1.13;;;8.20;99.90;;;;;;4947052;28;20215;-64
2021/04/11 05:09:38;;;;;;;3.70;1.00;;;8.20;99.90;;;;;;4943900;28;20209;-64
2021/04/11 05:12:21;;;;;;;3.27;1.17;;;8.20;99.90;;;;;;4929558;29;20236;-64
2021/04/11 05:14:56;;;;;;;4.00;0.90;;;8.20;99.90;;;;;;4925987;29;20570;-64
2021/04/11 05:17:30;;;;;;;3.00;1.10;;;8.10;99.90;;;;;;4934513;28;20212;-65
2021/04/11 05:20:00;;;;;;;3.07;1.10;;;8.10;99.90;;;;;;4941684;28;20280;-64
2021/04/11 05:22:41;;;;;;;2.00;1.23;;;8.10;99.90;;;;;;4932393;29;20613;-64
2021/04/11 05:25:19;;;;;;;2.13;0.90;;;8.20;99.90;;;;;;4930921;29;20207;-64
2021/04/11 05:27:55;;;;;;;1.93;0.97;;;8.20;99.90;;;;;;4930759;29;20202;-64
2021/04/11 05:30:28;;;;;;;2.20;1.10;;;8.30;99.90;;;;;;4930915;29;20691;-64
2021/04/11 05:32:55;;;;;;;1.70;0.97;;;8.40;99.90;;;;;;4932199;29;20210;-64
2021/04/11 05:35:23;;;;;;;3.53;1.10;;;8.40;99.90;;;;;;4932135;29;20197;-65
2021/04/11 05:38:04;;;;;;;6.40;1.30;;;8.40;99.90;;;;;;4931187;29;20209;-65
2021/04/11 05:40:35;;;;;;;2.23;1.10;;;8.40;99.90;;;;;;4932175;29;20232;-65
2021/04/11 05:43:06;;;;;;;1.57;1.00;;;8.50;99.90;;;;;;4931346;29;20205;-64
2021/04/11 05:45:37;;;;;;;2.30;1.10;;;8.50;99.90;;;;;;4936846;28;20201;-64
2021/04/11 05:48:13;;;;;;;4.13;1.37;;;8.50;99.90;;;;;;4931926;29;20307;-64
2021/04/11 05:50:43;;;;;;;2.30;1.20;;;8.50;99.90;;;;;;4931787;29;20626;-64
2021/04/11 05:53:16;;;;;;;2.40;0.90;;;8.60;99.90;;;;;;4932270;29;20265;-64
2021/04/11 05:55:49;;;;;;;1.83;0.80;;;8.60;99.90;;;;;;4931365;29;20213;-63
2021/04/11 05:58:19;;;;;;;1.20;0.80;;;8.80;99.90;;;;;;4931133;29;20320;-64
2021/04/11 06:00:51;;;;;;;1.87;1.10;;;8.90;99.90;;;;;;4931573;29;20288;-64
2021/04/11 06:03:21;;;;;;;2.93;1.10;;;9.00;99.90;;;;;;4932030;29;20190;-65
2021/04/11 06:06:01;;;;;;;2.37;1.27;;;9.10;99.90;;;;;;4931528;29;20201;-64
2021/04/11 06:08:33;;;;;;;5.57;1.43;;;9.20;99.90;;;;;;4940074;28;20201;-63
2021/04/11 06:11:02;;;;;;;1.90;1.53;;;9.30;99.90;;;;;;4930297;29;20206;-63
2021/04/11 06:13:43;;;;;;;3.20;1.63;;;9.40;99.90;;;;;;4931775;29;20305;-64
2021/04/11 06:16:15;;;;;;;2.20;1.40;;;9.40;99.90;;;;;;4931187;29;20540;-64
2021/04/11 06:18:46;;;;;;;2.83;1.67;;;9.40;99.90;;;;;;4931997;29;20277;-64
2021/04/11 06:21:17;;;;;;;2.37;1.40;;;9.20;99.90;;;;;;4924405;29;20209;-65
2021/04/11 06:23:51;;;;;;;1.27;1.00;;;9.40;99.90;;;;;;4931611;29;20206;-64
2021/04/11 06:26:31;;;;;;;4.17;1.77;;;9.50;99.90;;;;;;4920424;29;20205;-64
2021/04/11 06:29:02;;;;;;;4.43;2.03;;;9.60;99.70;;;;;;4930906;29;20197;-64
2021/04/11 06:31:32;;;;;;;8.23;2.20;;;9.50;99.60;;;;;;4931292;29;20562;-65
2021/04/11 06:34:03;;;;;;;4.10;2.10;;;9.40;99.90;;;;;;4931463;29;20222;-64
2021/04/11 06:36:33;;;;;;;2.50;2.23;;;9.40;99.80;;;;;;4931622;29;20277;-64
2021/04/11 06:39:04;;;;;;;3.63;1.60;;;9.50;99.90;;;;;;4931516;29;20597;-64
2021/04/11 06:41:56;;;;;;;2.40;1.97;;;9.50;99.90;;;;;;4929994;29;20285;-64
2021/04/11 06:44:48;;;;;;;2.53;1.80;;;9.60;99.80;;;;;;4923312;29;20745;-65
2021/04/11 06:47:42;;;;;;;5.00;2.00;;;9.80;99.80;;;;;;4929222;29;20756;-65
2021/04/11 06:50:22;;;;;;;4.30;2.00;;;10.10;99.00;;;;;;4876259;29;20308;-65
2021/04/11 06:53:13;;;;;;;2.27;1.80;;;10.40;98.60;;;;;;4897938;29;20318;-65
2021/04/11 06:56:30;;;;;;;6.47;2.30;;;10.70;98.00;;;;;;4889798;29;20216;-64
2021/04/11 06:59:11;;;;;;;1.70;1.60;;;11.00;97.30;;;;;;4782685;29;20285;-64
2021/04/11 07:02:01;;;;;;;3.17;1.80;;;11.30;96.60;;;;;;4784081;29;20282;-64
2021/04/11 07:04:51;;;;;;;2.93;1.73;;;11.40;96.20;;;;;;4786043;29;20359;-64
2021/04/11 07:07:52;;;;;;;4.33;1.70;;;11.60;96.40;;;;;;4769125;30;20219;-64
2021/04/11 07:10:34;;;;;;;3.47;1.80;;;11.90;95.90;;;;;;4722442;30;20228;-65
2021/04/11 07:13:53;;;;;;;5.80;1.83;;;12.20;95.30;;;;;;4714856;30;20543;-65
2021/04/11 07:16:46;;;;;;;3.47;1.67;;;12.70;94.60;;;;;;4680405;30;20232;-65
2021/04/11 07:19:43;;;;;;;4.40;2.60;;;13.20;93.70;;;;;;4691723;30;20225;-64
2021/04/11 07:22:58;;;;;;;3.87;2.10;;;13.50;92.40;;;;;;4688782;30;20307;-64
2021/04/11 07:25:35;;;;;;;3.37;2.20;;;13.70;91.40;;;;;;4659872;30;20256;-64
2021/04/11 07:28:27;;;;;;;6.00;2.80;;;13.90;91.00;;;;;;4701777;30;20698;-65
2021/04/11 07:31:00;;;;;;;4.43;2.87;;;14.00;89.90;;;;;;4712791;30;20214;-64
2021/04/11 07:34:12;;;;;;;7.13;3.50;;;14.20;88.20;;;;;;4703153;30;20404;-64
2021/04/11 07:37:00;;;;;;;5.00;2.77;;;14.30;85.80;;;;;;4765867;30;20317;-64
2021/04/11 07:39:46;;;;;;;3.57;2.40;;;14.60;84.80;;;;;;4751506;30;20375;-64
2021/04/11 07:42:58;;;;;;;3.90;2.67;;;15.00;83.40;;;;;;4764192;30;20319;-64
2021/04/11 07:45:49;;;;;;;4.47;2.77;;;15.70;81.20;;;;;;4765471;30;20619;-64
2021/04/11 07:48:39;;;;;;;3.50;2.60;;;16.30;78.40;;;;;;4799336;29;20232;-65
2021/04/11 07:51:28;;;;;;;3.70;2.77;;;16.60;75.70;;;;;;4801549;29;20307;-65
2021/04/11 07:54:07;;;;;;;4.23;3.10;;;16.70;74.80;;;;;;4852621;29;20334;-64
2021/04/11 07:56:48;;;;;;;3.67;2.80;;;16.70;72.30;;;;;;4910522;29;20303;-65
2021/04/11 07:59:30;;;;;;;4.07;3.10;;;16.90;73.10;;;;;;4933511;29;20747;-64
2021/04/11 08:02:32;;;;;;;3.97;2.83;;;17.10;70.50;;;;;;4928888;29;20287;-64
2021/04/11 08:05:31;;;;;;;5.17;2.97;;;17.30;70.00;;;;;;4875353;29;20214;-63
2021/04/11 08:08:09;;;;;;;3.77;2.53;;;17.20;69.30;;;;;;4874577;29;20207;-64
2021/04/11 08:11:25;;;;;;;4.97;3.10;;;17.00;70.10;;;;;;4872033;29;20207;-64
2021/04/11 08:13:56;;;;;;;2.73;2.53;;;16.50;69.30;;;;;;4781084;29;20241;-64
2021/04/11 08:16:47;;;;;;;2.77;2.37;;;16.20;70.30;;;;;;4773377;29;20222;-64
2021/04/11 08:19:48;;;;;;;4.37;2.47;;;15.90;71.20;;;;;;4783144;29;20224;-64
2021/04/11 08:22:35;;;;;;;5.77;2.80;;;15.80;71.50;;;;;;4782240;29;20764;-64
2021/04/11 08:25:18;;;;;;;3.20;2.23;;;16.00;71.40;;;;;;4783019;29;20238;-64
2021/04/11 08:28:22;;;;;;;4.43;2.67;;;16.10;71.20;;;;;;4781082;29;20225;-64
2021/04/11 08:31:25;;;;;;;3.00;2.20;;;16.00;71.00;;;;;;4778440;29;20226;-64
2021/04/11 08:34:24;;;;;;;2.63;2.40;;;15.80;71.50;;;;;;4780169;29;20228;-65
2021/04/11 08:37:21;;;;;;;5.83;2.70;;;15.70;71.90;;;;;;4778772;29;20223;-65
2021/04/11 08:40:03;;;;;;;4.33;2.77;;;15.70;72.00;;;;;;4782977;29;20261;-64
2021/04/11 08:42:53;;;;;;;4.63;3.00;;;15.60;71.80;;;;;;4851275;29;20221;-64
2021/04/11 08:45:35;;;;;;;5.63;3.07;;;15.60;73.00;;;;;;4855169;29;20358;-64
2021/04/11 08:48:23;;;;;;;5.20;3.17;;;15.70;72.30;;;;;;4856394;29;20711;-64
2021/04/11 08:50:55;;;;;;;5.13;3.43;;;15.80;72.20;;;;;;4932997;29;20283;-65
2021/04/11 08:53:31;;;;;;;4.87;2.67;;;16.10;71.90;;;;;;4934290;29;20223;-64
2021/04/11 08:56:05;;;;;;;3.17;2.43;;;16.50;71.30;;;;;;4931783;29;20200;-64
2021/04/11 08:58:37;;;;;;;9.00;3.70;;;16.80;70.50;;;;;;4927393;29;20233;-65
2021/04/11 09:01:28;;;;;;;7.97;3.40;;;17.00;69.60;;;;;;4932099;29;20553;-65
2021/04/11 09:04:17;;;;;;;9.33;3.07;;;17.20;69.80;;;;;;4932637;29;20280;-64
2021/04/11 09:07:20;;;;;;;5.60;2.43;;;17.30;68.60;;;;;;4926819;29;20209;-64
2021/04/11 09:09:59;;;;;;;7.03;2.90;;;17.50;68.50;;;;;;4873354;29;20237;-64
2021/04/11 09:12:36;;;;;;;5.40;3.43;;;17.70;67.80;;;;;;4871171;29;20227;-64
2021/04/11 09:15:15;;;;;;;5.40;3.20;;;18.00;66.90;;;;;;4868853;29;20287;-64
2021/04/11 09:18:09;;;;;;;5.60;2.93;;;18.20;66.40;;;;;;4872095;29;20306;-64
2021/04/11 09:20:44;;;;;;;4.97;3.00;;;18.40;65.80;;;;;;4870049;29;20667;-64
2021/04/11 09:23:26;;;;;;;3.97;3.20;;;18.70;65.30;;;;;;4873777;29;20207;-64
2021/04/11 09:26:01;;;;;;;4.17;3.20;;;19.00;64.30;;;;;;4872354;29;20224;-64
2021/04/11 09:28:47;;;;;;;4.33;2.57;;;19.30;63.30;;;;;;4873419;29;20220;-64
2021/04/11 09:31:39;;;;;;;4.13;2.55;;;19.80;62.80;;;;;;4862599;29;20234;-64
2021/04/11 09:34:39;;;;;;;3.43;2.90;;;20.50;61.40;;;;;;4861928;29;20258;-64
2021/04/11 09:37:18;;;;;;;5.82;2.80;;;21.10;59.90;;;;;;4835988;29;20579;-64
2021/04/11 09:40:13;;;;;;;4.60;3.47;;;21.30;58.80;;;;;;4835746;29;20213;-64
2021/04/11 09:42:55;;;;;;;3.97;2.95;;;21.10;58.50;;;;;;4838209;29;20311;-64
2021/04/11 09:45:33;;;;;;;5.72;3.50;;;20.90;58.50;;;;;;4834583;29;20288;-65
2021/04/11 09:48:28;;;;;;;6.40;3.15;;;20.70;58.30;;;;;;4891353;29;20219;-65
2021/04/11 09:51:13;;;;;;;4.40;3.45;;;20.30;58.70;;;;;;4890649;29;20603;-64
2021/04/11 09:53:56;;;;;;;8.98;4.13;;;20.00;58.70;;;;;;4881816;29;20329;-65
2021/04/11 09:56:31;;;;;;;6.13;4.17;;;19.60;58.90;;;;;;4890044;29;20211;-65
2021/04/11 09:59:13;;;;;;;6.78;4.55;;;19.30;59.30;;;;;;4888275;29;20700;-65
2021/04/11 10:01:47;;;;;;;7.45;4.70;;;19.00;59.60;;;;;;4890413;29;20274;-65
2021/04/11 10:04:29;;;;;;;5.78;3.90;;;18.70;59.90;;;;;;4891394;29;20256;-65
2021/04/11 10:07:19;;;;;;;5.50;3.97;;;18.30;60.60;;;;;;4890395;29;20621;-65
2021/04/11 10:09:57;;;;;;;5.55;3.83;;;18.00;61.30;;;;;;4879486;29;20335;-65
2021/04/11 10:12:38;;;;;;;9.30;4.03;;;17.90;62.00;;;;;;4885797;29;20208;-64
2021/04/11 10:15:15;;;;;;;5.87;3.60;;;17.90;62.50;;;;;;4927137;29;20225;-65
2021/04/11 10:18:04;;;;;;;5.23;3.47;;;18.10;62.60;;;;;;4930707;29;20218;-65
2021/04/11 10:20:36;;;;;;;7.97;3.80;;;18.20;62.80;;;;;;4933397;29;20325;-65
2021/04/11 10:23:14;;;;;;;5.10;3.80;;;18.40;62.90;;;;;;4934071;29;20195;-65
2021/04/11 10:25:46;;;;;;;3.97;3.20;;;19.20;63.60;;;;;;4933106;29;20235;-65
2021/04/11 10:28:18;;;;;;;5.97;3.50;;;20.30;61.50;;;;;;4934907;29;20232;-65
2021/04/11 10:30:54;;;;;;;6.67;4.73;;;21.00;59.80;;;;;;4932845;29;20208;-65
2021/04/11 10:33:31;;;;;;;9.15;5.22;;;21.40;58.70;;;;;;4928589;29;20205;-65
2021/04/11 10:36:04;;;;;;;8.05;4.35;;;21.30;58.30;;;;;;4932711;29;20209;-65
2021/04/11 10:38:37;;;;;;;6.65;4.30;;;21.00;58.20;;;;;;4933658;29;20706;-65
2021/04/11 10:41:35;;;;;;;6.07;4.00;;;20.80;58.50;;;;;;4929379;29;20201;-65
2021/04/11 10:44:17;;;;;;;5.18;3.97;;;20.90;58.70;;;;;;4933360;29;20726;-65
2021/04/11 10:47:00;;;;;;;5.90;4.25;;;21.20;58.60;;;;;;4933254;29;20281;-65
2021/04/11 10:49:38;;;;;;;7.03;3.83;;;21.80;58.00;;;;;;4931956;29;20202;-65
2021/04/11 10:52:18;;;;;;;6.60;4.57;;;22.20;57.50;;;;;;4933657;29;20228;-64
2021/04/11 10:55:12;;;;;;;7.22;4.72;;;22.40;56.70;;;;;;4933597;29;20734;-65
2021/04/11 10:57:58;;;;;;;4.45;3.63;;;22.70;56.10;;;;;;4924329;29;20316;-64
2021/04/11 11:00:32;;;;;;;5.03;3.85;;;22.90;56.00;;;;;;4935885;29;20533;-65
2021/04/11 11:03:32;;;;;;;6.38;4.40;;;23.30;55.70;;;;;;4931460;29;20197;-65
2021/04/11 11:06:29;;;;;;;6.65;5.18;;;24.00;54.80;;;;;;4941266;28;20201;-65
2021/04/11 11:09:14;;;;;;;6.30;4.40;;;24.70;53.30;;;;;;4931913;29;20202;-65
2021/04/11 11:12:07;;;;;;;6.53;5.03;;;24.60;52.30;;;;;;4927132;29;20215;-64
2021/04/11 11:15:07;;;;;;;6.28;4.75;;;24.30;52.60;;;;;;4908278;29;20297;-64
2021/04/11 11:17:50;;;;;;;8.38;5.40;;;23.90;52.50;;;;;;4853792;29;20225;-66
2021/04/11 11:20:21;;;;;;;6.50;5.05;;;23.80;52.90;;;;;;4849465;29;20652;-67
2021/04/11 11:23:18;;;;;;;5.10;3.92;;;23.80;53.30;;;;;;4853652;29;20255;-66
2021/04/11 11:26:12;;;;;;;6.40;4.40;;;23.90;52.90;;;;;;4844560;29;20308;-65
2021/04/11 11:29:09;;;;;;;10.35;4.72;;;24.30;53.00;;;;;;4798386;29;20243;-64
2021/04/11 11:31:44;;;;;;;7.57;4.43;;;25.30;52.00;;;;;;4799438;29;20238;-64
2021/04/11 11:34:28;;;;;;;6.47;4.57;;;26.40;51.10;;;;;;4800078;29;20332;-64
2021/04/11 11:37:06;;;;;;;8.07;4.97;;;27.10;50.10;;;;;;4800432;29;20683;-64
2021/04/11 11:39:39;;;;;;;6.35;4.15;;;27.50;48.40;;;;;;4785480;29;20309;-64
2021/04/11 11:42:20;;;;;;;6.43;5.00;;;27.80;48.00;;;;;;4798975;29;20283;-64
2021/04/11 11:45:01;;;;;;;7.25;4.60;;;28.00;46.80;;;;;;4783427;29;20206;-64
2021/04/11 11:47:35;;;;;;;5.43;4.43;;;28.00;46.30;;;;;;4797296;29;20248;-64
2021/04/11 11:50:08;;;;;;;5.35;4.35;;;27.90;46.30;;;;;;4799708;29;20616;-64
2021/04/11 11:52:42;;;;;;;6.93;5.40;;;27.50;46.40;;;;;;4836661;29;20220;-64
2021/04/11 11:55:18;;;;;;;7.25;5.40;;;27.10;45.80;;;;;;4860142;29;20258;-64
2021/04/11 11:57:52;;;;;;;6.38;5.65;;;26.80;45.90;;;;;;4871812;29;20243;-64
2021/04/11 12:00:24;;;;;;;8.63;5.50;;;26.40;46.00;;;;;;4873577;29;20203;-64
2021/04/11 12:03:06;;;;;;;7.85;5.10;;;25.80;45.90;;;;;;4873442;29;20208;-64
2021/04/11 12:05:40;;;;;;;8.00;4.85;;;25.20;46.50;;;;;;4905092;29;20587;-63
2021/04/11 12:08:16;;;;;;;6.85;5.15;;;24.80;47.20;;;;;;4933052;29;20614;-65
2021/04/11 12:10:48;;;;;;;6.53;4.68;;;24.50;47.50;;;;;;4934354;29;20210;-64
2021/04/11 12:13:29;;;;;;;7.35;4.80;;;24.30;47.80;;;;;;4932937;29;20202;-64
2021/04/11 12:16:03;;;;;;;7.07;4.90;;;24.10;48.10;;;;;;4939245;29;20198;-64
2021/04/11 12:18:33;;;;;;;8.82;6.10;;;24.00;48.10;;;;;;4934451;29;20202;-64
2021/04/11 12:21:07;;;;;;;6.55;4.40;;;23.90;48.00;;;;;;4925381;29;20196;-64
2021/04/11 12:23:40;;;;;;;9.10;5.65;;;23.80;48.30;;;;;;4933041;29;20281;-64
2021/04/11 12:26:09;;;;;;;9.23;5.28;;;23.70;48.40;;;;;;4933421;29;20317;-63
2021/04/11 12:28:38;;;;;;;8.40;5.45;;;23.70;48.50;;;;;;4931668;29;20206;-63
2021/04/11 12:31:24;;;;;;;12.02;5.15;;;23.60;48.20;;;;;;4930415;29;20626;-64
2021/04/11 12:33:58;;;;;;;8.85;6.15;;;23.50;48.00;;;;;;4929073;29;20240;-64
2021/04/11 12:36:34;;;;;;;11.50;6.57;;;23.40;47.80;;;;;;4924994;29;20202;-64
2021/04/11 12:39:06;;;;;;;10.43;6.15;;;23.20;47.40;;;;;;4923713;29;20201;-63
2021/04/11 12:41:40;;;;;;;8.75;5.82;;;23.10;47.30;;;;;;4927046;29;20202;-63
2021/04/11 12:44:16;;;;;;;8.07;5.38;;;22.90;47.50;;;;;;4927776;29;20194;-62
2021/04/11 12:46:58;;;;;;;7.07;5.45;;;22.90;47.80;;;;;;4927917;29;20205;-63
2021/04/11 12:49:28;;;;;;;5.60;4.55;;;22.80;48.00;;;;;;4922422;29;20206;-64
2021/04/11 12:52:02;;;;;;;10.68;6.32;;;22.80;47.80;;;;;;4930022;29;20264;-64
2021/04/11 12:54:35;;;;;;;9.73;5.82;;;22.80;47.50;;;;;;4933130;29;20253;-65
2021/04/11 12:57:05;;;;;;;10.15;4.28;;;22.70;47.20;;;;;;4925107;29;20202;-64
2021/04/11 12:59:39;;;;;;;6.93;4.90;;;22.80;47.40;;;;;;4927511;29;20253;-64
2021/04/11 13:02:12;;;;;;;8.25;5.18;;;22.80;47.20;;;;;;4928480;29;20645;-64
2021/04/11 13:04:42;;;;;;;6.15;4.20;;;22.70;47.10;;;;;;4928644;29;20230;-64
2021/04/11 13:07:17;;;;;;;5.13;4.13;;;22.60;47.20;;;;;;4930657;29;20212;-64
2021/04/11 13:10:02;;;;;;;5.38;4.15;;;22.60;47.40;;;;;;4931929;29;20236;-64
2021/04/11 13:12:39;;;;;;;7.35;5.15;;;22.60;47.40;;;;;;4926486;29;20332;-64
2021/04/11 13:15:16;;;;;;;8.75;5.38;;;22.60;47.00;;;;;;4926820;29;20253;-64
2021/04/11 13:17:50;;;;;;;8.80;5.07;;;22.40;46.60;;;;;;4928876;29;20700;-65
2021/04/11 13:20:21;;;;;;;7.22;4.53;;;22.30;46.40;;;;;;4930767;29;20308;-65
2021/04/11 13:22:54;;;;;;;8.55;4.13;;;22.30;46.70;;;;;;4945790;28;20325;-65
2021/04/11 13:25:32;;;;;;;5.28;4.18;;;22.20;46.70;;;;;;4940687;29;20194;-65
2021/04/11 13:28:14;;;;;;;5.18;4.28;;;22.20;46.80;;;;;;4927576;29;20260;-64
2021/04/11 13:30:46;;;;;;;7.15;4.65;;;22.30;46.70;;;;;;4927163;29;20210;-64
2021/04/11 13:33:20;;;;;;;7.60;4.60;;;22.20;46.40;;;;;;4917463;29;20540;-65
2021/04/11 13:35:56;;;;;;;4.78;4.22;;;22.20;46.20;;;;;;4928889;29;20229;-64
2021/04/11 13:38:26;;;;;;;6.68;4.78;;;22.20;46.20;;;;;;4931627;29;20572;-65
2021/04/11 13:41:07;;;;;;;9.82;4.55;;;22.20;45.40;;;;;;4933888;29;20291;-64
2021/04/11 13:43:55;;;;;;;5.82;3.78;;;22.10;44.10;;;;;;4931162;29;20273;-64
2021/04/11 13:46:33;;;;;;;6.57;4.13;;;22.00;44.20;;;;;;4925534;29;20295;-65
2021/04/11 13:49:06;;;;;;;8.05;4.95;;;22.00;44.10;;;;;;4930561;29;20204;-64